Time;durP1;ratioP1;P1;durP2;ratioP2;P2;SDS_P1;SDS_P2;PMS_P1;PMS_P2;Temp;Humidity;BMP_temperature;BMP_pressure;BME280_temperature;BME280_humidity;BME280_pressure;Samples;Min_cycle;Max_cycle;Signal;HPM_P1;HPM_P2
2023/03/30 00:02:17;;;;;;;;;;;;;;;6.32;95.77;100889.97;5608618;31;34156;-68
2023/03/30 00:05:22;;;;;;;;;;;;;;;6.36;95.63;100892.22;5595547;31;36037;-68
2023/03/30 00:08:29;;;;;;;;;;;;;;;6.48;94.83;100882.47;5608818;31;33862;-69
2023/03/30 00:11:38;;;;;;;;;;;;;;;6.46;95.25;100879.09;5609190;31;35156;-69
2023/03/30 00:14:47;;;;;;;;;;;;;;;6.45;94.83;100873.00;5608815;31;34175;-67
2023/03/30 00:17:54;;;;;;;;;;;;;;;6.37;94.09;100872.81;5608451;31;33282;-68
2023/03/30 00:21:01;;;;;;;;;;;;;;;6.41;93.73;100871.59;5608643;31;33426;-69
2023/03/30 00:24:08;;;;;;;;;;;;;;;6.49;93.53;100873.56;5608800;31;34318;-68
2023/03/30 00:27:14;;;;;;;;;;;;;;;6.55;92.42;100871.25;5595694;31;34778;-68
2023/03/30 00:30:20;;;;;;;;;;;;;;;6.61;90.37;100872.53;5608687;31;34537;-68
2023/03/30 00:33:27;;;;;;;;;;;;;;;6.54;89.90;100872.22;5608704;31;34206;-69
2023/03/30 00:36:52;;;;;;;;;;;;;;;6.60;88.88;100867.41;5607921;31;34701;-69
2023/03/30 00:39:58;;;;;;;;;;;;;;;6.58;88.16;100867.53;5608879;31;34896;-68
2023/03/30 00:43:10;;;;;;;;;;;;;;;6.60;88.02;100862.97;5608337;31;35038;-69
2023/03/30 00:46:15;;;;;;;;;;;;;;;6.55;88.59;100852.81;5608479;31;34939;-68
2023/03/30 00:49:22;;;;;;;;;;;;;;;6.54;88.89;100850.28;5609224;31;34253;-69
2023/03/30 00:52:27;;;;;;;;;;;;;;;6.50;89.90;100843.63;5609155;31;34318;-69
2023/03/30 00:55:38;;;;;;;;;;;;;;;6.48;91.65;100846.41;5595485;31;32638;-69
2023/03/30 00:58:48;;;;;;;;;;;;;;;6.42;90.17;100846.06;5609156;31;34378;-68
2023/03/30 01:02:02;;;;;;;;;;;;;;;6.41;91.26;100839.12;5608991;31;34224;-68
2023/03/30 01:05:10;;;;;;;;;;;;;;;6.32;91.02;100838.13;5608283;31;34144;-69
2023/03/30 01:08:19;;;;;;;;;;;;;;;6.25;91.28;100830.84;5608269;31;34228;-68
2023/03/30 01:11:27;;;;;;;;;;;;;;;6.21;92.15;100832.06;5607617;31;33371;-67
2023/03/30 01:14:38;;;;;;;;;;;;;;;6.15;92.96;100833.41;5607482;31;34479;-68
2023/03/30 01:17:58;;;;;;;;;;;;;;;6.08;91.85;100817.31;5608809;31;34244;-68
2023/03/30 01:21:22;;;;;;;;;;;;;;;5.99;91.10;100819.87;5608009;31;34822;-68
2023/03/30 01:24:48;;;;;;;;;;;;;;;5.92;93.72;100816.06;5608725;31;34940;-68
2023/03/30 01:27:58;;;;;;;;;;;;;;;5.81;93.28;100805.56;5608752;31;34093;-68
2023/03/30 01:31:26;;;;;;;;;;;;;;;5.69;94.30;100799.50;5607885;31;34148;-69
2023/03/30 01:34:48;;;;;;;;;;;;;;;5.55;95.86;100805.91;5608589;31;34196;-68
2023/03/30 01:38:15;;;;;;;;;;;;;;;5.52;95.61;100794.78;5608532;31;34449;-68
2023/03/30 01:41:52;;;;;;;;;;;;;;;5.53;94.76;100785.91;5607452;31;33330;-68
2023/03/30 01:44:57;;;;;;;;;;;;;;;5.45;94.69;100791.00;5595956;31;34811;-68
2023/03/30 01:48:11;;;;;;;;;;;;;;;5.33;96.94;100792.81;5607469;31;34243;-68
2023/03/30 01:51:36;;;;;;;;;;;;;;;5.32;96.23;100799.06;5609990;31;34726;-68
2023/03/30 01:54:46;;;;;;;;;;;;;;;5.28;96.02;100799.41;5610782;31;34499;-68
2023/03/30 01:57:54;;;;;;;;;;;;;;;5.19;97.24;100793.09;5610159;31;34290;-68
2023/03/30 02:01:03;;;;;;;;;;;;;;;5.05;98.55;100790.72;5609964;31;34350;-69
2023/03/30 02:04:11;;;;;;;;;;;;;;;5.05;100.00;100799.44;5610645;31;35012;-69
2023/03/30 02:07:18;;;;;;;;;;;;;;;4.83;100.00;100796.87;5609939;31;34223;-68
2023/03/30 02:10:27;;;;;;;;;;;;;;;4.66;100.00;100806.06;5610248;31;34548;-68
2023/03/30 02:13:34;;;;;;;;;;;;;;;4.88;100.00;100801.75;5610610;31;34249;-68
2023/03/30 02:16:46;;;;;;;;;;;;;;;4.96;100.00;100789.66;5609890;31;34171;-68
2023/03/30 02:19:55;;;;;;;;;;;;;;;4.86;100.00;100793.97;5609747;31;34555;-68
2023/03/30 02:23:04;;;;;;;;;;;;;;;4.77;100.00;100787.66;5610441;31;34908;-68
2023/03/30 02:26:14;;;;;;;;;;;;;;;4.96;100.00;100779.16;5610676;31;34937;-68
2023/03/30 02:29:23;;;;;;;;;;;;;;;4.97;99.72;100766.84;5609842;31;34765;-68
2023/03/30 02:32:38;;;;;;;;;;;;;;;4.89;99.48;100769.25;5609795;31;34309;-68
2023/03/30 02:35:53;;;;;;;;;;;;;;;4.62;100.00;100778.34;5609831;31;34881;-68
2023/03/30 02:39:13;;;;;;;;;;;;;;;4.38;100.00;100775.00;5610452;31;34832;-67
2023/03/30 02:42:42;;;;;;;;;;;;;;;4.23;100.00;100784.06;5609643;31;34106;-68
2023/03/30 02:45:57;;;;;;;;;;;;;;;4.05;100.00;100780.22;5609520;31;34320;-68
2023/03/30 02:49:22;;;;;;;;;;;;;;;3.97;100.00;100783.41;5596562;31;34410;-68
2023/03/30 02:52:53;;;;;;;;;;;;;;;4.00;100.00;100793.69;5609949;31;34669;-68
2023/03/30 02:56:05;;;;;;;;;;;;;;;4.19;100.00;100780.84;5609594;31;34395;-67
2023/03/30 02:59:18;;;;;;;;;;;;;;;4.46;100.00;100775.22;5609390;31;34303;-67
2023/03/30 03:02:31;;;;;;;;;;;;;;;4.50;100.00;100786.37;5608529;31;34260;-68
2023/03/30 03:05:42;;;;;;;;;;;;;;;4.43;100.00;100790.41;5610260;31;34797;-68
2023/03/30 03:08:53;;;;;;;;;;;;;;;4.54;100.00;100790.41;5609458;31;32980;-67
2023/03/30 03:12:04;;;;;;;;;;;;;;;4.64;100.00;100786.13;5609840;31;34182;-68
2023/03/30 03:15:15;;;;;;;;;;;;;;;4.65;100.00;100785.97;5596764;31;33059;-68
2023/03/30 03:18:23;;;;;;;;;;;;;;;4.84;100.00;100779.31;5596426;31;34311;-68
2023/03/30 03:21:32;;;;;;;;;;;;;;;4.86;100.00;100783.47;5609335;31;34343;-67
2023/03/30 03:24:43;;;;;;;;;;;;;;;4.86;100.00;100799.25;5610048;31;34776;-67
2023/03/30 03:27:53;;;;;;;;;;;;;;;4.88;100.00;100783.34;5609177;31;34747;-68
2023/03/30 03:31:04;;;;;;;;;;;;;;;4.97;100.00;100783.47;5609725;31;34213;-67
2023/03/30 03:34:11;;;;;;;;;;;;;;;5.02;100.00;100791.81;5596401;31;35350;-68
2023/03/30 03:37:21;;;;;;;;;;;;;;;5.01;100.00;100802.44;5596223;31;33468;-68
2023/03/30 03:40:31;;;;;;;;;;;;;;;4.99;100.00;100796.47;5609114;31;34754;-67
2023/03/30 03:43:46;;;;;;;;;;;;;;;4.93;100.00;100796.97;5608559;31;33438;-67
2023/03/30 03:46:57;;;;;;;;;;;;;;;4.98;100.00;100787.75;5608965;31;34741;-67
2023/03/30 03:50:08;;;;;;;;;;;;;;;5.17;100.00;100789.75;5609123;31;34322;-67
2023/03/30 03:53:17;;;;;;;;;;;;;;;5.15;100.00;100786.41;5608943;31;33877;-69
2023/03/30 03:56:26;;;;;;;;;;;;;;;5.07;100.00;100783.56;5609596;31;35053;-67
2023/03/30 03:59:35;;;;;;;;;;;;;;;4.92;100.00;100784.78;5609700;31;34173;-68
2023/03/30 04:02:43;;;;;;;;;;;;;;;4.87;99.30;100779.87;5609477;31;34153;-67
2023/03/30 04:05:51;;;;;;;;;;;;;;;4.85;97.41;100781.78;5608788;31;34302;-68
2023/03/30 04:08:59;;;;;;;;;;;;;;;4.79;99.17;100771.78;5555416;31;1691322;-68
2023/03/30 04:12:10;;;;;;;;;;;;;;;4.76;98.95;100766.75;5595747;31;33451;-68
2023/03/30 04:15:17;;;;;;;;;;;;;;;4.76;98.15;100770.22;5608937;31;34398;-69
2023/03/30 04:18:32;;;;;;;;;;;;;;;4.82;100.00;100767.09;5609547;31;34123;-68
2023/03/30 04:21:39;;;;;;;;;;;;;;;4.62;100.00;100769.63;5609493;31;34245;-68
2023/03/30 04:24:48;;;;;;;;;;;;;;;4.53;100.00;100770.34;5609343;31;34189;-68
2023/03/30 04:28:03;;;;;;;;;;;;;;;4.42;100.00;100749.31;5608977;31;34557;-69
2023/03/30 04:31:11;;;;;;;;;;;;;;;4.37;100.00;100747.91;5596170;31;32900;-69
2023/03/30 04:34:20;;;;;;;;;;;;;;;4.34;100.00;100760.44;5595530;31;34482;-68
2023/03/30 04:37:33;;;;;;;;;;;;;;;4.39;100.00;100763.56;5596949;31;34332;-69
2023/03/30 04:40:41;;;;;;;;;;;;;;;4.51;100.00;100765.22;5609132;31;34790;-69
2023/03/30 04:43:49;;;;;;;;;;;;;;;4.66;100.00;100768.44;5595796;31;36156;-69
2023/03/30 04:47:00;;;;;;;;;;;;;;;4.82;100.00;100763.63;5608858;31;34359;-68
2023/03/30 04:50:10;;;;;;;;;;;;;;;4.92;99.87;100755.84;5609051;31;34248;-68
2023/03/30 04:53:17;;;;;;;;;;;;;;;4.99;96.85;100751.75;5608360;31;34766;-68
2023/03/30 04:56:25;;;;;;;;;;;;;;;5.10;96.84;100752.59;5608396;31;34333;-68
2023/03/30 04:59:30;;;;;;;;;;;;;;;5.26;93.00;100744.28;5582454;31;34612;-69
2023/03/30 05:02:39;;;;;;;;;;;;;;;5.37;92.94;100744.25;5607980;31;34969;-68
2023/03/30 05:05:45;;;;;;;;;;;;;;;5.37;90.42;100743.44;5608059;31;34256;-69
2023/03/30 05:08:52;;;;;;;;;;;;;;;5.37;90.92;100744.25;5608709;31;34312;-68
2023/03/30 05:11:58;;;;;;;;;;;;;;;5.48;91.67;100748.63;5608537;31;35485;-69
2023/03/30 05:15:07;;;;;;;;;;;;;;;5.53;90.04;100752.56;5608616;31;34217;-69
2023/03/30 05:18:16;;;;;;;;;;;;;;;5.53;88.16;100749.06;5608751;31;34183;-69
2023/03/30 05:21:31;;;;;;;;;;;;;;;5.77;89.11;100748.84;5608010;31;34186;-70
2023/03/30 05:24:37;;;;;;;;;;;;;;;5.72;86.99;100754.50;5593658;31;34717;-70
2023/03/30 05:27:45;;;;;;;;;;;;;;;5.74;88.64;100749.09;5607493;31;34097;-70
2023/03/30 05:30:52;;;;;;;;;;;;;;;5.86;87.84;100748.91;5594778;31;34672;-69
2023/03/30 05:34:00;;;;;;;;;;;;;;;5.82;83.58;100744.88;5582578;31;33091;-70
2023/03/30 05:37:06;;;;;;;;;;;;;;;5.73;84.13;100742.16;5608087;31;34882;-70
2023/03/30 05:40:12;;;;;;;;;;;;;;;5.98;84.89;100747.91;5608159;31;34215;-68
2023/03/30 05:43:21;;;;;;;;;;;;;;;6.09;83.84;100732.06;5607228;31;32977;-69
2023/03/30 05:46:28;;;;;;;;;;;;;;;5.95;81.96;100732.41;5594623;31;35692;-68
2023/03/30 05:49:33;;;;;;;;;;;;;;;6.06;81.38;100737.56;5581297;31;34315;-68
2023/03/30 05:52:39;;;;;;;;;;;;;;;6.19;81.60;100732.09;5606930;31;34222;-68
2023/03/30 05:55:48;;;;;;;;;;;;;;;6.29;79.42;100726.88;5606802;31;34328;-68
2023/03/30 05:58:52;;;;;;;;;;;;;;;6.13;77.64;100730.00;5606839;31;34214;-68
2023/03/30 06:01:58;;;;;;;;;;;;;;;6.32;77.30;100735.34;5607624;31;34315;-68
2023/03/30 06:05:02;;;;;;;;;;;;;;;6.40;78.33;100732.88;5606708;31;34601;-68
2023/03/30 06:08:09;;;;;;;;;;;;;;;6.46;75.62;100727.09;5606871;31;34964;-68
2023/03/30 06:11:16;;;;;;;;;;;;;;;6.92;75.69;100730.97;5607388;31;34704;-68
2023/03/30 06:14:21;;;;;;;;;;;;;;;7.23;73.75;100743.09;5607257;31;34908;-68
2023/03/30 06:17:28;;;;;;;;;;;;;;;6.84;71.61;100742.19;5607638;31;35410;-69
2023/03/30 06:20:36;;;;;;;;;;;;;;;6.78;71.65;100734.81;5607511;31;35044;-69
2023/03/30 06:23:43;;;;;;;;;;;;;;;6.85;72.13;100720.12;5606355;31;34403;-68
2023/03/30 06:26:49;;;;;;;;;;;;;;;6.95;70.96;100717.50;5606992;31;34436;-68
2023/03/30 06:29:54;;;;;;;;;;;;;;;6.70;71.88;100721.47;5607425;31;34407;-68
2023/03/30 06:33:00;;;;;;;;;;;;;;;7.16;70.81;100728.78;5606097;31;34625;-68
2023/03/30 06:36:08;;;;;;;;;;;;;;;7.37;71.27;100718.94;5608419;31;33720;-68
2023/03/30 06:39:14;;;;;;;;;;;;;;;7.20;70.44;100706.44;5609431;31;33133;-69
2023/03/30 06:42:19;;;;;;;;;;;;;;;7.38;69.48;100707.41;5610073;31;34236;-68
2023/03/30 06:45:25;;;;;;;;;;;;;;;7.55;68.09;100715.59;5609099;31;34940;-68
2023/03/30 06:48:33;;;;;;;;;;;;;;;7.54;68.54;100701.56;5608964;31;34866;-68
2023/03/30 06:51:40;;;;;;;;;;;;;;;7.76;68.83;100698.59;5608935;31;33866;-67
2023/03/30 06:54:46;;;;;;;;;;;;;;;7.75;68.65;100693.47;5609346;31;34271;-67
2023/03/30 06:57:51;;;;;;;;;;;;;;;7.56;68.01;100709.31;5609077;31;34231;-67
2023/03/30 07:00:57;;;;;;;;;;;;;;;7.41;68.89;100704.47;5609834;31;34980;-67
2023/03/30 07:04:03;;;;;;;;;;;;;;;7.60;70.12;100703.62;5608388;31;34504;-67
2023/03/30 07:07:10;;;;;;;;;;;;;;;7.57;71.49;100714.47;5608943;31;34937;-66
2023/03/30 07:10:15;;;;;;;;;;;;;;;7.71;70.33;100702.66;5609175;31;34368;-68
2023/03/30 07:13:21;;;;;;;;;;;;;;;7.49;70.55;100713.53;5609581;31;35154;-67
2023/03/30 07:16:26;;;;;;;;;;;;;;;7.68;71.36;100711.69;5609676;31;34850;-67
2023/03/30 07:19:30;;;;;;;;;;;;;;;7.51;71.54;100708.91;5608869;31;34877;-67
2023/03/30 07:22:35;;;;;;;;;;;;;;;7.54;73.90;100709.50;5609695;31;34230;-69
2023/03/30 07:25:45;;;;;;;;;;;;;;;7.51;71.25;100706.28;5609329;31;34457;-68
2023/03/30 07:28:52;;;;;;;;;;;;;;;7.48;72.22;100704.75;5596219;31;34233;-69
2023/03/30 07:31:57;;;;;;;;;;;;;;;7.83;70.96;100697.09;5609744;31;35263;-68
2023/03/30 07:35:03;;;;;;;;;;;;;;;7.99;70.44;100700.94;5608820;31;34506;-68
2023/03/30 07:38:13;;;;;;;;;;;;;;;8.59;68.85;100715.47;5595996;31;34454;-68
2023/03/30 07:41:19;;;;;;;;;;;;;;;9.00;67.18;100706.19;5609638;31;34851;-68
2023/03/30 07:44:27;;;;;;;;;;;;;;;8.82;67.12;100702.66;5595557;31;33474;-69
2023/03/30 07:47:36;;;;;;;;;;;;;;;9.27;66.88;100702.63;5609163;31;34191;-67
2023/03/30 07:50:41;;;;;;;;;;;;;;;8.75;65.74;100704.25;5609505;31;33734;-69
2023/03/30 07:53:47;;;;;;;;;;;;;;;9.53;64.91;100700.91;5609507;31;34659;-68
2023/03/30 07:56:55;;;;;;;;;;;;;;;9.53;63.70;100703.53;5608890;31;35502;-68
2023/03/30 08:00:00;;;;;;;;;;;;;;;8.66;66.55;100714.75;5609679;31;34929;-67
2023/03/30 08:03:14;;;;;;;;;;;;;;;9.40;65.53;100713.69;5609500;31;34572;-68
2023/03/30 08:06:23;;;;;;;;;;;;;;;9.10;64.90;100709.59;5609472;31;35049;-68
2023/03/30 08:09:29;;;;;;;;;;;;;;;9.38;64.60;100703.25;5609293;31;34963;-69
2023/03/30 08:12:34;;;;;;;;;;;;;;;9.62;64.40;100705.28;5608479;31;34841;-68
2023/03/30 08:15:39;;;;;;;;;;;;;;;9.53;62.62;100704.38;5595374;31;33435;-67
2023/03/30 08:18:46;;;;;;;;;;;;;;;9.95;62.02;100706.34;5609413;31;34301;-68
2023/03/30 08:21:49;;;;;;;;;;;;;;;10.15;60.96;100701.66;5609440;31;34802;-68
2023/03/30 08:24:55;;;;;;;;;;;;;;;10.72;59.46;100692.16;5608345;31;34684;-68
2023/03/30 08:27:59;;;;;;;;;;;;;;;10.17;62.29;100694.37;5609507;31;34541;-68
2023/03/30 08:31:07;;;;;;;;;;;;;;;9.85;61.61;100693.19;5609354;31;34144;-68
2023/03/30 08:34:11;;;;;;;;;;;;;;;9.31;64.85;100693.41;5609271;31;34867;-68
2023/03/30 08:37:14;;;;;;;;;;;;;;;9.51;65.60;100693.09;5609417;31;34584;-69
2023/03/30 08:40:19;;;;;;;;;;;;;;;9.92;63.00;100690.75;5609217;31;34217;-68
2023/03/30 08:43:32;;;;;;;;;;;;;;;9.85;63.04;100690.53;5609247;31;34131;-68
2023/03/30 08:46:37;;;;;;;;;;;;;;;10.44;62.50;100691.56;5608878;31;34175;-67
2023/03/30 08:49:49;;;;;;;;;;;;;;;10.02;63.39;100700.25;5595583;31;34159;-68
2023/03/30 08:52:56;;;;;;;;;;;;;;;9.86;63.71;100692.19;5608244;31;33860;-68
2023/03/30 08:56:07;;;;;;;;;;;;;;;9.28;66.09;100691.06;5608346;31;34335;-68
2023/03/30 08:59:19;;;;;;;;;;;;;;;9.43;66.96;100687.75;5607213;31;34402;-68
2023/03/30 09:02:29;;;;;;;;;;;;;;;9.76;65.09;100677.37;5608898;31;34834;-68
2023/03/30 09:05:37;;;;;;;;;;;;;;;10.58;62.89;100687.47;5608964;31;34889;-68
2023/03/30 09:08:43;;;;;;;;;;;;;;;10.09;64.65;100683.72;5608660;31;35020;-68
2023/03/30 09:11:51;;;;;;;;;;;;;;;10.44;65.34;100665.03;5608625;31;34838;-68
2023/03/30 09:15:19;;;;;;;;;;;;;;;10.44;62.98;100665.88;5607555;31;34516;-68
2023/03/30 09:18:36;;;;;;;;;;;;;;;11.20;60.75;100671.03;5599034;31;34343;-69
2023/03/30 09:21:40;;;;;;;;;;;;;;;11.02;61.20;100666.84;5607874;31;34185;-69
2023/03/30 09:24:43;;;;;;;;;;;;;;;10.84;61.64;100665.16;5607794;31;34989;-69
2023/03/30 09:27:55;;;;;;;;;;;;;;;10.38;64.79;100661.19;5607807;31;34815;-69
2023/03/30 09:31:14;;;;;;;;;;;;;;;10.23;65.16;100657.47;5608382;31;34389;-69
2023/03/30 09:34:40;;;;;;;;;;;;;;;10.16;65.39;100652.97;5607292;31;34091;-69
2023/03/30 09:37:43;;;;;;;;;;;;;;;10.82;64.93;100651.22;5607418;31;32928;-69
2023/03/30 09:40:59;;;;;;;;;;;;;;;11.09;62.93;100639.47;5608214;31;35060;-69
2023/03/30 09:44:22;;;;;;;;;;;;;;;11.33;62.65;100639.47;5595201;31;34898;-67
2023/03/30 09:47:34;;;;;;;;;;;;;;;11.68;62.66;100626.84;5594270;31;35115;-68
2023/03/30 09:50:40;;;;;;;;;;;;;;;11.00;63.97;100621.03;5605327;31;34206;-68
2023/03/30 09:53:47;;;;;;;;;;;;;;;11.55;63.74;100624.69;5601159;31;34199;-69
2023/03/30 09:56:53;;;;;;;;;;;;;;;12.18;60.99;100627.41;5607940;31;34913;-68
2023/03/30 09:59:59;;;;;;;;;;;;;;;12.83;60.29;100619.06;5607259;31;34926;-72
2023/03/30 10:03:21;;;;;;;;;;;;;;;12.97;58.65;100622.81;5607214;31;34799;-69
2023/03/30 10:06:37;;;;;;;;;;;;;;;13.14;57.64;100616.37;5607232;31;34929;-69
2023/03/30 10:09:44;;;;;;;;;;;;;;;11.98;61.35;100619.97;5607009;31;34087;-69
2023/03/30 10:12:52;;;;;;;;;;;;;;;13.06;59.17;100611.94;5608990;31;35240;-69
2023/03/30 10:16:01;;;;;;;;;;;;;;;13.25;57.93;100615.97;5610119;31;34451;-69
2023/03/30 10:19:16;;;;;;;;;;;;;;;13.10;57.53;100608.91;5609367;31;33923;-68
2023/03/30 10:22:21;;;;;;;;;;;;;;;12.83;58.29;100608.41;5610342;31;34755;-68
2023/03/30 10:25:27;;;;;;;;;;;;;;;12.22;60.32;100597.78;5610536;31;34841;-68
2023/03/30 10:28:33;;;;;;;;;;;;;;;11.96;63.02;100598.03;5609322;31;34177;-69
2023/03/30 10:31:45;;;;;;;;;;;;;;;12.18;61.68;100590.16;5610441;31;35126;-69
2023/03/30 10:34:52;;;;;;;;;;;;;;;11.86;63.21;100584.16;5610388;31;34468;-69
2023/03/30 10:37:57;;;;;;;;;;;;;;;12.57;63.13;100579.50;5610479;31;34166;-69
2023/03/30 10:41:10;;;;;;;;;;;;;;;12.68;61.77;100564.94;5609769;31;35037;-68
2023/03/30 10:44:23;;;;;;;;;;;;;;;13.16;60.80;100566.44;5610088;31;34510;-69
2023/03/30 10:47:36;;;;;;;;;;;;;;;13.63;59.25;100554.66;5610157;31;34758;-69
2023/03/30 10:50:40;;;;;;;;;;;;;;;13.63;60.57;100560.81;5609440;31;34186;-69
2023/03/30 10:53:47;;;;;;;;;;;;;;;12.86;60.54;100556.66;5610138;31;35012;-70
2023/03/30 10:57:02;;;;;;;;;;;;;;;12.51;60.36;100550.06;5609135;31;34291;-69
2023/03/30 11:00:30;;;;;;;;;;;;;;;12.48;61.14;100540.62;5610005;31;34468;-69
2023/03/30 11:03:38;;;;;;;;;;;;;;;12.48;61.30;100526.50;5609710;31;33991;-69
2023/03/30 11:06:43;;;;;;;;;;;;;;;13.62;58.15;100532.50;5609371;31;34530;-69
2023/03/30 11:09:51;;;;;;;;;;;;;;;14.89;54.30;100539.13;5609326;31;33771;-69
2023/03/30 11:13:00;;;;;;;;;;;;;;;15.19;52.94;100532.59;5609828;31;35489;-69
2023/03/30 11:16:10;;;;;;;;;;;;;;;15.02;54.13;100532.06;5609802;31;34448;-69
2023/03/30 11:19:19;;;;;;;;;;;;;;;14.33;54.77;100536.25;5610000;31;34896;-69
2023/03/30 11:22:31;;;;;;;;;;;;;;;14.29;55.89;100532.31;5582556;31;35157;-68
2023/03/30 11:25:40;;;;;;;;;;;;;;;13.87;55.59;100523.19;5609027;31;32796;-68
2023/03/30 11:29:01;;;;;;;;;;;;;;;13.52;57.85;100531.09;5609062;31;34327;-69
2023/03/30 11:32:24;;;;;;;;;;;;;;;13.30;59.01;100522.19;5608959;31;33757;-69
2023/03/30 11:35:49;;;;;;;;;;;;;;;13.46;58.75;100512.16;5608922;31;34044;-68
2023/03/30 11:39:04;;;;;;;;;;;;;;;12.96;59.88;100515.47;5609795;31;34225;-69
2023/03/30 11:42:09;;;;;;;;;;;;;;;12.57;62.46;100510.28;5608927;31;34928;-70
2023/03/30 11:45:16;;;;;;;;;;;;;;;13.13;62.32;100502.03;5609065;31;33389;-70
2023/03/30 11:48:37;;;;;;;;;;;;;;;13.27;61.03;100502.03;5609969;31;34105;-68
2023/03/30 11:51:53;;;;;;;;;;;;;;;13.96;58.80;100497.25;5608898;31;34769;-68
2023/03/30 11:55:02;;;;;;;;;;;;;;;13.94;58.72;100491.28;5609177;31;34287;-68
2023/03/30 11:58:26;;;;;;;;;;;;;;;14.95;56.60;100485.78;5608979;31;34904;-70
2023/03/30 12:01:51;;;;;;;;;;;;;;;16.37;52.14;100490.41;5596024;31;33474;-69
2023/03/30 12:05:09;;;;;;;;;;;;;;;15.69;53.12;100494.06;5609951;31;34846;-69
2023/03/30 12:08:13;;;;;;;;;;;;;;;14.77;56.66;100477.37;5609432;31;34377;-68
2023/03/30 12:11:37;;;;;;;;;;;;;;;13.48;59.79;100456.84;5609494;31;34544;-69
2023/03/30 12:15:00;;;;;;;;;;;;;;;13.34;61.64;100464.84;5608492;31;34664;-69
2023/03/30 12:18:24;;;;;;;;;;;;;;;14.40;58.29;100453.63;5608648;31;34305;-68
2023/03/30 12:21:29;;;;;;;;;;;;;;;16.44;52.36;100448.44;5609371;31;35156;-68
2023/03/30 12:24:49;;;;;;;;;;;;;;;16.68;51.25;100433.63;5609265;31;34886;-67
2023/03/30 12:27:59;;;;;;;;;;;;;;;16.41;52.25;100431.97;5609287;31;34697;-69
2023/03/30 12:31:04;;;;;;;;;;;;;;;14.87;55.71;100423.63;5608469;31;34760;-68
2023/03/30 12:34:11;;;;;;;;;;;;;;;15.71;54.34;100419.81;5609155;31;34984;-68
2023/03/30 12:37:27;;;;;;;;;;;;;;;15.24;54.85;100409.91;5595641;31;34982;-69
2023/03/30 12:40:36;;;;;;;;;;;;;;;15.39;56.40;100404.44;5608517;31;34771;-70
2023/03/30 12:44:08;;;;;;;;;;;;;;;16.38;52.88;100398.38;5608281;31;34800;-69
2023/03/30 12:47:34;;;;;;;;;;;;;;;15.72;54.30;100397.41;5608816;31;34720;-69
2023/03/30 12:50:52;;;;;;;;;;;;;;;15.36;55.93;100386.09;5608901;31;34235;-69
2023/03/30 12:54:07;;;;;;;;;;;;;;;15.83;55.12;100379.97;5608701;31;34371;-69
2023/03/30 12:57:13;;;;;;;;;;;;;;;16.18;54.17;100365.38;5608215;31;34220;-69
2023/03/30 13:00:27;;;;;;;;;;;;;;;16.38;53.49;100368.09;5608730;31;34250;-69
2023/03/30 13:03:35;;;;;;;;;;;;;;;15.29;56.59;100370.06;5594874;31;33044;-69
2023/03/30 13:06:50;;;;;;;;;;;;;;;15.17;57.79;100351.06;5608026;31;33177;-68
2023/03/30 13:09:58;;;;;;;;;;;;;;;14.75;59.37;100356.59;5607882;31;34406;-68
2023/03/30 13:13:03;;;;;;;;;;;;;;;14.75;59.25;100354.75;5608002;31;34347;-68
2023/03/30 13:16:08;;;;;;;;;;;;;;;15.04;59.13;100355.53;5608457;31;34786;-69
2023/03/30 13:19:20;;;;;;;;;;;;;;;14.61;60.57;100350.34;5608153;31;34649;-69
2023/03/30 13:22:28;;;;;;;;;;;;;;;14.64;61.18;100355.28;5594800;31;34607;-69
2023/03/30 13:25:38;;;;;;;;;;;;;;;15.06;59.97;100348.13;5607378;31;34774;-68
2023/03/30 13:28:58;;;;;;;;;;;;;;;14.78;61.47;100351.66;5594464;31;35424;-69
2023/03/30 13:32:06;;;;;;;;;;;;;;;14.99;59.75;100347.28;5607251;31;34473;-70
2023/03/30 13:35:10;;;;;;;;;;;;;;;15.06;59.86;100340.94;5608255;31;34476;-69
2023/03/30 13:38:29;;;;;;;;;;;;;;;15.00;59.85;100338.25;5594299;31;35301;-69
2023/03/30 13:41:41;;;;;;;;;;;;;;;14.57;62.16;100335.69;5594813;31;34276;-69
2023/03/30 13:44:54;;;;;;;;;;;;;;;14.81;62.63;100330.94;5606987;31;35000;-69
2023/03/30 13:48:19;;;;;;;;;;;;;;;14.54;62.15;100337.94;5610313;31;34243;-70
2023/03/30 13:51:26;;;;;;;;;;;;;;;14.85;61.90;100324.19;5610090;31;34838;-69
2023/03/30 13:54:33;;;;;;;;;;;;;;;15.15;60.32;100328.25;5609301;31;34236;-69
2023/03/30 13:57:40;;;;;;;;;;;;;;;14.51;61.96;100323.16;5610157;31;34676;-69
2023/03/30 14:00:47;;;;;;;;;;;;;;;14.73;62.15;100306.03;5597032;31;34841;-69
2023/03/30 14:03:59;;;;;;;;;;;;;;;15.14;60.48;100306.06;5609435;31;34328;-69
2023/03/30 14:07:14;;;;;;;;;;;;;;;14.64;61.96;100293.03;5610487;31;34847;-69
2023/03/30 14:10:21;;;;;;;;;;;;;;;14.42;63.22;100286.12;5609266;31;32806;-69
2023/03/30 14:13:26;;;;;;;;;;;;;;;14.75;62.57;100281.81;5610004;31;34790;-69
2023/03/30 14:16:34;;;;;;;;;;;;;;;14.57;62.96;100271.63;5609547;31;32727;-69
2023/03/30 14:19:45;;;;;;;;;;;;;;;14.54;63.67;100264.03;5610363;31;34120;-69
2023/03/30 14:22:50;;;;;;;;;;;;;;;14.80;63.00;100258.00;5610152;31;34191;-69
2023/03/30 14:25:58;;;;;;;;;;;;;;;15.04;62.64;100262.03;5608866;31;34437;-69
2023/03/30 14:29:05;;;;;;;;;;;;;;;15.11;63.06;100257.50;5609351;31;33353;-69
2023/03/30 14:32:19;;;;;;;;;;;;;;;14.84;63.13;100245.06;5609978;31;34252;-69
2023/03/30 14:35:25;;;;;;;;;;;;;;;14.65;64.73;100235.94;5610013;31;34358;-68
2023/03/30 14:38:43;;;;;;;;;;;;;;;14.48;65.02;100227.44;5610488;31;34839;-68
2023/03/30 14:41:49;;;;;;;;;;;;;;;14.63;65.10;100212.09;5596671;31;34767;-68
2023/03/30 14:44:59;;;;;;;;;;;;;;;14.82;64.82;100204.38;5609871;31;34173;-68
2023/03/30 14:48:05;;;;;;;;;;;;;;;14.65;64.75;100201.25;5609592;31;34810;-69
2023/03/30 14:51:23;;;;;;;;;;;;;;;14.69;65.98;100189.13;5609447;31;34937;-69
2023/03/30 14:54:29;;;;;;;;;;;;;;;14.87;64.43;100188.56;5610211;31;34910;-69
2023/03/30 14:57:38;;;;;;;;;;;;;;;15.02;65.14;100176.72;5608266;31;34593;-70
2023/03/30 15:00:44;;;;;;;;;;;;;;;14.90;64.95;100178.34;5609966;31;35116;-69
2023/03/30 15:03:49;;;;;;;;;;;;;;;15.05;64.31;100172.84;5609165;31;34216;-68
2023/03/30 15:06:54;;;;;;;;;;;;;;;14.83;64.55;100169.47;5609041;31;34962;-69
2023/03/30 15:09:59;;;;;;;;;;;;;;;14.77;65.27;100151.56;5609850;31;34838;-69
2023/03/30 15:13:20;;;;;;;;;;;;;;;14.93;64.94;100153.88;5609383;31;34360;-69
2023/03/30 15:16:27;;;;;;;;;;;;;;;14.82;64.82;100156.31;5609562;31;35008;-68
2023/03/30 15:19:33;;;;;;;;;;;;;;;14.84;65.53;100152.44;5609945;31;34939;-69
2023/03/30 15:22:40;;;;;;;;;;;;;;;14.63;66.27;100149.88;5609150;31;34167;-70
2023/03/30 15:25:47;;;;;;;;;;;;;;;14.23;67.59;100141.66;5609642;31;34342;-69
2023/03/30 15:28:57;;;;;;;;;;;;;;;14.18;69.48;100141.44;5609728;31;34723;-68
2023/03/30 15:32:14;;;;;;;;;;;;;;;14.17;69.29;100144.28;5608825;31;35024;-68
2023/03/30 15:35:28;;;;;;;;;;;;;;;14.33;70.17;100150.13;5609745;31;34980;-68
2023/03/30 15:38:35;;;;;;;;;;;;;;;14.51;69.93;100159.50;5609676;31;34832;-69
2023/03/30 15:41:49;;;;;;;;;;;;;;;14.56;70.00;100171.22;5609701;31;34370;-69
2023/03/30 15:45:06;;;;;;;;;;;;;;;14.58;69.26;100177.16;5609674;31;34714;-69
2023/03/30 15:48:10;;;;;;;;;;;;;;;14.54;68.85;100175.09;5608756;31;33191;-68
2023/03/30 15:51:15;;;;;;;;;;;;;;;14.57;69.53;100182.72;5608811;31;34261;-69
2023/03/30 15:54:25;;;;;;;;;;;;;;;14.53;71.88;100190.28;5609346;31;33864;-69
2023/03/30 15:57:31;;;;;;;;;;;;;;;14.40;71.23;100195.56;5608483;31;32945;-69
2023/03/30 16:00:38;;;;;;;;;;;;;;;14.35;72.70;100201.47;5608278;31;33478;-69
2023/03/30 16:03:53;;;;;;;;;;;;;;;14.13;77.40;100199.06;5609422;31;35072;-68
2023/03/30 16:06:59;;;;;;;;;;;;;;;13.70;80.45;100180.47;5608542;31;34411;-68
2023/03/30 16:10:06;;;;;;;;;;;;;;;13.38;89.74;100175.69;5608439;31;34599;-68
2023/03/30 16:13:12;;;;;;;;;;;;;;;13.11;94.64;100169.28;5608152;31;35681;-69
2023/03/30 16:16:19;;;;;;;;;;;;;;;12.91;98.69;100168.22;5608745;31;34332;-69
2023/03/30 16:19:24;;;;;;;;;;;;;;;12.47;100.00;100173.59;5609309;31;35023;-69
2023/03/30 16:22:29;;;;;;;;;;;;;;;12.17;100.00;100170.94;5609418;31;34862;-67